Search for airport 
image banner adimage banner ad
image banner ad

LEENGU - Enguera

Located in , Spain

ICAO - , IATA -

Data provided by Airmate  

General information

Coordinates: N38°56'34" W0°46'11"
Elevation is 1903 feet MSL.
 
Rated:
View ratings: [VIEW]


View others Airports in Valencia

Operational data

Open for public use
Current time UTC:
Current local time:
Weather at : LEVC - Valencia/Manises ( 66 km )
METAR: LEVC 091400Z 09010KT 050V120 CAVOK 31/20 Q1016 NOSIG
TAF: TAF LEVC 091100Z 0912/1012 10010KT 9999 FEW025 TX33/0912Z TN23/1006Z BECMG 0917/0920 VRB03KT
View NOTAMs / SUP AIP / TFR affecting this airport [VIEW]
Communications frequencies: [VIEW]

Runways:

RWY identifierQFULength (ft)Width (ft)SurfaceLDA (ft)
07246172DIRT
25246172DIRT
1613120DIRT
3413120DIRT

Airport contact information

Address: Spain

Other aviation service providers

Flight schools

Avialsa

Avialsa
ato@avialsa.com+34962654100
+34962654100

Satellite view of LEENGU